createdAt,value
2018-12-25T00:01:47.282Z,77.48
2018-12-25T00:04:15.575Z,77.52
2018-12-25T00:06:43.868Z,77.45
2018-12-25T00:09:12.179Z,77.26
2018-12-25T00:11:40.471Z,77.18
2018-12-25T00:14:08.759Z,77.16
2018-12-25T00:16:37.056Z,76.95
2018-12-25T00:19:06.303Z,77.02
2018-12-25T00:21:35.366Z,76.85
2018-12-25T00:24:03.681Z,76.86
2018-12-25T00:26:31.965Z,76.80
2018-12-25T00:29:00.286Z,76.76
2018-12-25T00:31:28.570Z,76.62
2018-12-25T00:33:56.867Z,76.72
2018-12-25T00:36:25.154Z,76.67
2018-12-25T00:38:53.450Z,76.58
2018-12-25T00:41:21.737Z,76.57
2018-12-25T00:44:09.474Z,76.26
2018-12-25T00:46:37.756Z,76.22
2018-12-25T00:49:14.584Z,75.93
2018-12-25T00:51:36.090Z,76.00
2018-12-25T00:54:04.389Z,76.01
2018-12-25T00:56:32.674Z,75.85
2018-12-25T00:59:00.973Z,75.88
2018-12-25T01:01:29.264Z,75.72
2018-12-25T01:03:57.556Z,75.63
2018-12-25T01:06:25.845Z,75.63
2018-12-25T01:08:54.141Z,75.47
2018-12-25T01:11:22.452Z,75.54
2018-12-25T01:13:50.745Z,75.46
2018-12-25T01:16:19.139Z,75.54
2018-12-25T01:18:47.417Z,75.71
2018-12-25T01:21:15.703Z,75.64
2018-12-25T01:23:44.009Z,75.47
2018-12-25T01:26:12.317Z,75.34
2018-12-25T01:28:40.616Z,75.53
2018-12-25T01:31:08.918Z,75.35
2018-12-25T01:33:37.237Z,75.25
2018-12-25T01:36:05.520Z,75.31
2018-12-25T01:38:33.824Z,75.23
2018-12-25T01:41:02.131Z,75.31
2018-12-25T01:43:30.452Z,75.28
2018-12-25T01:45:58.762Z,75.34
2018-12-25T01:48:27.061Z,75.48
2018-12-25T01:50:55.354Z,75.43
2018-12-25T01:53:23.652Z,75.49
2018-12-25T01:55:51.936Z,75.52
2018-12-25T01:58:20.236Z,75.37
2018-12-25T02:00:48.519Z,75.40
2018-12-25T02:03:16.803Z,75.24
2018-12-25T02:05:45.102Z,75.20
2018-12-25T02:08:13.391Z,75.36
2018-12-25T02:10:41.695Z,75.50
2018-12-25T02:13:09.978Z,75.49
2018-12-25T02:15:38.277Z,75.52
2018-12-25T02:18:06.561Z,75.38
2018-12-25T02:20:34.860Z,75.49
2018-12-25T02:23:03.157Z,75.47
2018-12-25T02:25:31.453Z,75.65
2018-12-25T02:27:59.743Z,75.60
2018-12-25T02:30:28.035Z,75.61
2018-12-25T02:32:56.326Z,75.62
2018-12-25T02:35:24.639Z,75.51
2018-12-25T02:37:52.927Z,75.54
2018-12-25T02:40:21.221Z,75.47
2018-12-25T02:42:49.500Z,75.42
2018-12-25T02:45:17.821Z,75.48
2018-12-25T02:47:46.131Z,75.46
2018-12-25T02:50:14.434Z,75.41
2018-12-25T02:52:42.747Z,75.51
2018-12-25T02:55:30.478Z,75.53
2018-12-25T02:57:58.766Z,75.66
2018-12-25T03:00:27.064Z,75.65
2018-12-25T03:02:55.371Z,75.58
2018-12-25T03:05:23.670Z,75.73
2018-12-25T03:07:51.988Z,75.76
2018-12-25T03:10:20.290Z,75.75
2018-12-25T03:12:48.575Z,75.78
2018-12-25T03:15:16.882Z,75.75
2018-12-25T03:17:45.160Z,75.83
2018-12-25T03:20:13.460Z,75.85
2018-12-25T03:22:41.770Z,75.95
2018-12-25T03:25:10.070Z,75.91
2018-12-25T03:27:38.355Z,75.88
2018-12-25T03:32:55.540Z,75.81
2018-12-25T03:35:23.843Z,75.77
2018-12-25T03:37:52.155Z,75.80
2018-12-25T03:40:20.447Z,75.78
2018-12-25T03:42:48.762Z,75.80
2018-12-25T03:45:17.045Z,75.78
2018-12-25T03:47:45.345Z,75.60
2018-12-25T03:50:13.633Z,75.74
2018-12-25T03:52:41.931Z,75.73
2018-12-25T03:55:10.219Z,75.75
2018-12-25T03:57:38.519Z,75.73
2018-12-25T04:03:21.037Z,75.85
2018-12-25T04:05:49.321Z,75.80
2018-12-25T04:08:17.621Z,75.81
2018-12-25T04:10:45.900Z,75.83
2018-12-25T04:13:14.223Z,75.89
2018-12-25T04:15:42.513Z,76.05
2018-12-25T04:18:10.864Z,76.19
2018-12-25T04:20:39.150Z,76.40
2018-12-25T04:23:07.470Z,76.45
2018-12-25T04:25:35.754Z,76.41
2018-12-25T04:28:04.074Z,76.40
2018-12-25T04:30:32.381Z,76.29
2018-12-25T04:33:00.680Z,76.27
2018-12-25T04:35:28.965Z,76.26
2018-12-25T04:37:57.289Z,76.31
2018-12-25T04:40:25.568Z,76.34
2018-12-25T04:42:53.871Z,76.34
2018-12-25T04:45:22.158Z,76.39
2018-12-25T04:47:50.481Z,76.31
2018-12-25T04:50:18.764Z,76.40
2018-12-25T04:52:47.067Z,76.43
2018-12-25T04:55:15.374Z,76.34
2018-12-25T04:57:43.673Z,76.30
2018-12-25T05:00:11.961Z,76.24
2018-12-25T05:02:40.257Z,76.26
2018-12-25T05:05:08.543Z,76.19
2018-12-25T05:07:36.839Z,76.17
2018-12-25T05:13:18.892Z,76.17
2018-12-25T05:15:47.201Z,75.91
2018-12-25T05:18:15.510Z,75.94
2018-12-25T05:20:43.804Z,75.69
2018-12-25T05:23:12.107Z,75.74
2018-12-25T05:25:40.391Z,75.70
2018-12-25T05:28:08.690Z,75.67
2018-12-25T05:30:36.984Z,75.44
2018-12-25T05:33:05.303Z,75.47
2018-12-25T05:35:33.589Z,75.41
2018-12-25T05:38:01.891Z,75.47
2018-12-25T05:40:30.193Z,75.40
2018-12-25T05:42:58.488Z,75.51
2018-12-25T05:45:26.797Z,75.63
2018-12-25T05:47:55.099Z,75.69
2018-12-25T05:50:23.385Z,75.68
2018-12-25T05:52:51.673Z,75.69
2018-12-25T05:55:19.973Z,75.78
2018-12-25T05:57:48.258Z,75.77
2018-12-25T06:00:16.554Z,75.71
2018-12-25T06:02:44.871Z,75.73
2018-12-25T06:05:13.170Z,75.71
2018-12-25T06:07:41.479Z,75.79
2018-12-25T06:10:09.788Z,75.98
2018-12-25T06:12:38.088Z,76.13
2018-12-25T06:15:06.394Z,76.20
2018-12-25T06:17:34.676Z,76.35
2018-12-25T06:20:02.979Z,76.47
2018-12-25T06:22:31.283Z,76.60
2018-12-25T06:24:59.583Z,76.73
2018-12-25T06:27:27.869Z,76.65
2018-12-25T06:29:56.191Z,77.01
2018-12-25T06:32:24.479Z,77.52
2018-12-25T06:34:52.799Z,77.86
2018-12-25T06:37:21.092Z,77.85
2018-12-25T06:39:49.383Z,78.06
2018-12-25T06:42:17.674Z,78.20
2018-12-25T06:44:45.968Z,78.37
2018-12-25T06:47:14.277Z,78.46
2018-12-25T06:49:42.600Z,78.56
2018-12-25T06:52:10.890Z,78.60
2018-12-25T06:54:39.466Z,78.58
2018-12-25T06:57:09.198Z,78.51
2018-12-25T06:59:37.526Z,78.48
2018-12-25T07:02:05.819Z,78.39
2018-12-25T07:04:34.110Z,78.40
2018-12-25T07:07:02.402Z,78.48
2018-12-25T07:09:30.687Z,78.43
2018-12-25T07:12:18.410Z,78.56
2018-12-25T07:14:46.695Z,78.57
2018-12-25T07:17:14.999Z,78.46
2018-12-25T07:19:43.281Z,78.55
2018-12-25T07:22:11.596Z,78.47
2018-12-25T07:24:39.901Z,78.37
2018-12-25T07:27:08.197Z,78.18
2018-12-25T07:29:36.484Z,78.07
2018-12-25T07:32:04.779Z,78.04
2018-12-25T07:34:33.066Z,78.03
2018-12-25T07:37:01.360Z,77.81
2018-12-25T07:39:29.645Z,77.61
2018-12-25T07:41:57.965Z,77.37
2018-12-25T07:44:26.259Z,77.44
2018-12-25T07:46:54.580Z,77.21
2018-12-25T07:49:22.892Z,77.12
2018-12-25T07:52:10.616Z,77.02
2018-12-25T07:54:38.898Z,77.03
2018-12-25T07:57:07.199Z,77.06
2018-12-25T07:59:35.490Z,77.17
2018-12-25T08:02:03.786Z,77.03
2018-12-25T08:04:32.073Z,76.69
2018-12-25T08:07:00.369Z,76.80
2018-12-25T08:09:28.654Z,76.73
2018-12-25T08:11:56.974Z,76.43
2018-12-25T08:14:25.256Z,76.40
2018-12-25T08:16:53.555Z,76.11
2018-12-25T08:19:21.844Z,75.93
2018-12-25T08:21:50.162Z,75.83
2018-12-25T08:24:18.450Z,75.59
2018-12-25T08:26:46.745Z,75.74
2018-12-25T08:29:15.036Z,75.59
2018-12-25T08:31:43.338Z,75.47
2018-12-25T08:34:11.628Z,75.62
2018-12-25T08:36:39.930Z,75.53
2018-12-25T08:39:08.239Z,75.33
2018-12-25T08:41:36.539Z,75.38
2018-12-25T08:44:04.833Z,75.17
2018-12-25T08:46:33.120Z,74.94
2018-12-25T08:49:01.424Z,75.13
2018-12-25T08:51:37.442Z,74.81
2018-12-25T08:53:59.733Z,74.71
2018-12-25T08:56:28.043Z,74.68
2018-12-25T08:58:56.339Z,74.70
2018-12-25T09:01:24.625Z,74.67
2018-12-25T09:03:52.923Z,74.53
2018-12-25T09:06:21.202Z,74.36
2018-12-25T09:08:49.523Z,74.28
2018-12-25T09:11:17.810Z,74.42
2018-12-25T09:13:46.135Z,74.48
2018-12-25T09:16:14.417Z,74.11
2018-12-25T09:18:42.716Z,74.07
2018-12-25T09:21:11.003Z,73.84
2018-12-25T09:23:39.335Z,73.79
2018-12-25T09:26:07.621Z,73.58
2018-12-25T09:28:35.917Z,73.61
2018-12-25T09:31:04.205Z,73.52
2018-12-25T09:33:32.508Z,73.36
2018-12-25T09:36:00.817Z,73.16
2018-12-25T09:38:29.137Z,73.17
2018-12-25T09:40:57.420Z,73.23
2018-12-25T09:43:25.717Z,73.11
2018-12-25T09:45:54.022Z,72.94
2018-12-25T09:48:22.319Z,72.72
2018-12-25T09:50:50.631Z,72.76
2018-12-25T09:53:18.951Z,72.75
2018-12-25T09:55:47.262Z,72.71
2018-12-25T09:58:15.561Z,72.79
2018-12-25T10:00:43.845Z,72.65
2018-12-25T10:03:12.176Z,72.54
2018-12-25T10:05:40.497Z,72.55
2018-12-25T10:08:08.788Z,72.54
2018-12-25T10:10:37.080Z,71.94
2018-12-25T10:13:05.402Z,72.05
2018-12-25T10:15:33.688Z,72.04
2018-12-25T10:18:01.974Z,72.05
2018-12-25T10:20:30.294Z,71.97
2018-12-25T10:22:58.606Z,71.84
2018-12-25T10:25:26.907Z,72.11
2018-12-25T10:27:55.213Z,71.95
2018-12-25T10:30:23.532Z,71.68
2018-12-25T10:32:51.818Z,70.97
2018-12-25T10:35:20.137Z,71.17
2018-12-25T10:37:48.428Z,70.95
2018-12-25T10:40:16.726Z,71.11
2018-12-25T10:42:45.014Z,71.17
2018-12-25T10:45:13.309Z,70.89
2018-12-25T10:47:41.622Z,71.15
2018-12-25T10:50:09.944Z,71.21
2018-12-25T10:52:38.229Z,71.26
2018-12-25T10:55:06.528Z,71.39
2018-12-25T10:57:34.814Z,71.40
2018-12-25T11:02:57.324Z,71.43
2018-12-25T11:05:25.622Z,71.43
2018-12-25T11:07:53.911Z,71.23
2018-12-25T11:10:22.212Z,71.25
2018-12-25T11:12:50.581Z,71.23
2018-12-25T11:15:18.892Z,71.20
2018-12-25T11:17:47.183Z,70.85
2018-12-25T11:20:15.481Z,70.95
2018-12-25T11:22:43.770Z,70.93
2018-12-25T11:25:12.073Z,70.93
2018-12-25T11:27:40.356Z,70.70
2018-12-25T11:30:08.654Z,70.85
2018-12-25T11:32:44.127Z,70.67
2018-12-25T11:35:12.442Z,70.42
2018-12-25T11:37:40.725Z,70.54
2018-12-25T11:40:09.020Z,70.44
2018-12-25T11:42:37.305Z,70.59
2018-12-25T11:45:05.625Z,70.54
2018-12-25T11:47:33.932Z,70.25
2018-12-25T11:50:02.236Z,70.35
2018-12-25T11:52:30.517Z,70.71
2018-12-25T11:54:58.817Z,70.55
2018-12-25T11:57:27.108Z,70.80
2018-12-25T11:59:55.431Z,70.74
2018-12-25T12:02:23.728Z,70.50
2018-12-25T12:04:52.026Z,70.21
2018-12-25T12:07:20.315Z,70.00
2018-12-25T12:09:48.628Z,69.95
2018-12-25T12:12:16.925Z,69.30
2018-12-25T12:14:45.247Z,69.39
2018-12-25T12:17:13.548Z,68.80
2018-12-25T12:19:41.835Z,68.63
2018-12-25T12:22:10.138Z,68.60
2018-12-25T12:24:38.428Z,68.28
2018-12-25T12:27:06.757Z,68.05
2018-12-25T12:29:35.041Z,67.59
2018-12-25T12:32:03.368Z,68.00
2018-12-25T12:34:31.677Z,67.49
2018-12-25T12:36:59.981Z,67.49
2018-12-25T12:39:47.695Z,67.04
2018-12-25T12:42:35.426Z,67.46
2018-12-25T12:47:58.070Z,67.61
2018-12-25T12:50:26.501Z,67.59
2018-12-25T12:52:54.922Z,67.83
2018-12-25T12:55:23.209Z,67.46
2018-12-25T12:57:51.531Z,68.09
2018-12-25T13:00:19.824Z,67.32
2018-12-25T13:02:48.122Z,67.33
2018-12-25T13:05:16.434Z,67.28
2018-12-25T13:07:44.733Z,67.17
2018-12-25T13:10:13.018Z,67.08
2018-12-25T13:12:41.321Z,66.57
2018-12-25T13:15:09.633Z,66.13
2018-12-25T13:17:37.929Z,66.73
2018-12-25T13:23:19.949Z,67.06
2018-12-25T13:25:48.242Z,67.47
2018-12-25T13:28:16.549Z,67.21
2018-12-25T13:30:44.830Z,67.32
2018-12-25T13:33:13.179Z,67.87
2018-12-25T13:35:41.433Z,67.60
2018-12-25T13:38:09.759Z,67.88
2018-12-25T13:40:38.045Z,67.78
2018-12-25T13:43:06.340Z,68.03
2018-12-25T13:45:34.642Z,67.97
2018-12-25T13:48:03.003Z,67.52
2018-12-25T13:50:31.290Z,67.48
2018-12-25T13:53:03.022Z,68.25
2018-12-25T13:55:29.604Z,67.99
2018-12-25T13:57:57.901Z,67.57
2018-12-25T14:00:26.187Z,66.80
2018-12-25T14:02:54.988Z,66.96
2018-12-25T14:05:23.277Z,67.23
2018-12-25T14:07:51.599Z,66.91
2018-12-25T14:10:19.885Z,66.90
2018-12-25T14:12:48.182Z,66.60
2018-12-25T14:15:16.466Z,66.74
2018-12-25T14:17:44.782Z,67.21
2018-12-25T14:20:13.073Z,66.65
2018-12-25T14:22:41.375Z,66.70
2018-12-25T14:25:09.681Z,66.10
2018-12-25T14:27:37.986Z,66.43
2018-12-25T14:33:20.437Z,66.12
2018-12-25T14:35:48.721Z,66.39
2018-12-25T14:38:17.034Z,65.79
2018-12-25T14:40:45.345Z,65.79
2018-12-25T14:43:13.651Z,65.79
2018-12-25T14:45:41.965Z,66.42
2018-12-25T14:48:10.267Z,66.51
2018-12-25T14:50:38.560Z,66.62
2018-12-25T14:53:06.862Z,66.62
2018-12-25T14:55:35.173Z,66.83
2018-12-25T14:58:03.493Z,66.72
2018-12-25T15:00:31.786Z,66.82
2018-12-25T15:03:00.115Z,67.08
2018-12-25T15:05:28.427Z,67.05
2018-12-25T15:07:56.720Z,67.24
2018-12-25T15:10:25.019Z,67.37
2018-12-25T15:12:53.429Z,67.60
2018-12-25T15:15:21.710Z,67.67
2018-12-25T15:17:50.012Z,67.71
2018-12-25T15:20:18.291Z,67.76
2018-12-25T15:22:46.593Z,67.76
2018-12-25T15:25:14.881Z,67.79
2018-12-25T15:27:43.208Z,67.78
2018-12-25T15:30:11.513Z,67.83
2018-12-25T15:32:39.804Z,67.90
2018-12-25T15:35:48.218Z,68.06
2018-12-25T15:38:16.538Z,68.18
2018-12-25T15:40:44.825Z,68.27
2018-12-25T15:43:13.162Z,72.48
2018-12-25T15:45:41.471Z,73.70
2018-12-25T15:48:09.769Z,71.61
2018-12-25T15:50:38.082Z,72.38
2018-12-25T15:53:06.366Z,70.97
2018-12-25T15:55:34.686Z,70.57
2018-12-25T15:58:03.049Z,71.33
2018-12-25T16:00:32.049Z,72.72
2018-12-25T16:03:01.376Z,72.55
2018-12-25T16:05:29.701Z,74.46
2018-12-25T16:07:57.980Z,72.92
2018-12-25T16:11:06.412Z,70.32
2018-12-25T16:13:34.697Z,72.21
2018-12-25T16:16:43.112Z,70.54
2018-12-25T16:19:11.421Z,69.78
2018-12-25T16:21:39.720Z,69.06
2018-12-25T16:24:08.008Z,69.04
2018-12-25T16:26:36.337Z,69.91
2018-12-25T16:29:04.620Z,71.35
2018-12-25T16:31:32.923Z,71.25
2018-12-25T16:34:01.218Z,71.84
2018-12-25T16:36:29.504Z,70.18
2018-12-25T16:38:57.788Z,70.52
2018-12-25T16:41:26.123Z,69.04
2018-12-25T16:43:54.413Z,70.03
2018-12-25T16:46:22.709Z,69.12
2018-12-25T16:48:51.016Z,69.38
2018-12-25T16:51:19.316Z,70.70
2018-12-25T16:53:53.496Z,70.10
2018-12-25T16:56:17.646Z,70.65
2018-12-25T16:58:45.928Z,70.26
2018-12-25T17:01:14.263Z,70.58
2018-12-25T17:03:42.571Z,69.10
2018-12-25T17:06:10.856Z,69.52
2018-12-25T17:08:39.157Z,70.47
2018-12-25T17:11:07.441Z,71.23
2018-12-25T17:13:35.743Z,70.62
2018-12-25T17:16:04.033Z,71.23
2018-12-25T17:18:32.330Z,67.51
2018-12-25T17:21:00.617Z,69.54
2018-12-25T17:23:28.913Z,70.35
2018-12-25T17:25:57.220Z,69.41
2018-12-25T17:28:27.925Z,70.58
2018-12-25T17:30:55.552Z,70.77
2018-12-25T17:33:23.858Z,69.66
2018-12-25T17:35:52.145Z,68.81
2018-12-25T17:38:20.467Z,69.19
2018-12-25T17:40:48.754Z,68.84
2018-12-25T17:43:17.050Z,68.34
2018-12-25T17:45:45.337Z,69.17
2018-12-25T17:48:13.635Z,68.52
2018-12-25T17:50:41.916Z,70.05
2018-12-25T17:53:10.213Z,69.04
2018-12-25T17:55:38.498Z,69.08
2018-12-25T17:58:06.792Z,71.77
2018-12-25T18:00:35.101Z,70.34
2018-12-25T18:03:03.390Z,70.82
2018-12-25T18:05:31.711Z,69.82
2018-12-25T18:08:00.020Z,68.80
2018-12-25T18:10:28.323Z,68.78
2018-12-25T18:12:56.637Z,71.12
2018-12-25T18:15:24.949Z,69.75
2018-12-25T18:17:53.236Z,71.46
2018-12-25T18:20:21.558Z,69.55
2018-12-25T18:22:49.839Z,71.63
2018-12-25T18:25:18.162Z,70.87
2018-12-25T18:27:46.450Z,69.88
2018-12-25T18:30:14.750Z,71.38
2018-12-25T18:32:43.032Z,69.18
2018-12-25T18:35:11.328Z,69.62
2018-12-25T18:37:39.612Z,70.35
2018-12-25T18:40:08.005Z,68.35
2018-12-25T18:42:36.319Z,69.23
2018-12-25T18:45:44.754Z,70.80
2018-12-25T18:48:13.043Z,70.96
2018-12-25T18:50:41.340Z,69.92
2018-12-25T18:53:09.650Z,69.34
2018-12-25T18:55:37.948Z,70.33
2018-12-25T18:58:06.232Z,68.98
2018-12-25T19:00:34.538Z,69.57
2018-12-25T19:03:02.821Z,70.52
2018-12-25T19:05:31.120Z,69.49
2018-12-25T19:07:59.404Z,69.66
2018-12-25T19:10:27.711Z,70.46
2018-12-25T19:12:55.992Z,69.38
2018-12-25T19:16:04.425Z,68.25
2018-12-25T19:18:32.712Z,70.31
2018-12-25T19:21:01.014Z,69.83
2018-12-25T19:23:29.304Z,69.89
2018-12-25T19:25:57.605Z,68.13
2018-12-25T19:28:45.326Z,69.57
2018-12-25T19:31:13.644Z,69.18
2018-12-25T19:34:01.367Z,69.08
2018-12-25T19:36:29.672Z,69.20
2018-12-25T19:42:04.636Z,69.28
2018-12-25T19:44:32.916Z,69.24
2018-12-25T19:47:01.240Z,68.99
2018-12-25T19:49:29.525Z,68.23
2018-12-25T19:51:57.825Z,68.65
2018-12-25T19:54:26.134Z,68.14
2018-12-25T19:56:54.458Z,68.94
2018-12-25T19:59:22.775Z,68.33
2018-12-25T20:01:51.077Z,68.68
2018-12-25T20:04:59.474Z,68.65
2018-12-25T20:08:06.573Z,68.61
2018-12-25T20:20:28.375Z,68.40
2018-12-25T20:23:36.787Z,69.28
2018-12-25T20:26:43.898Z,68.60
2018-12-25T20:29:50.995Z,68.58
2018-12-25T20:32:58.094Z,68.30
2018-12-25T20:36:05.188Z,68.97
2018-12-25T20:39:12.288Z,69.70
2018-12-25T20:42:19.365Z,69.09
2018-12-25T20:45:26.489Z,68.57
2018-12-25T20:48:33.587Z,68.52
2018-12-25T20:54:41.530Z,68.57
2018-12-25T21:03:50.164Z,68.36
2018-12-25T21:06:30.888Z,68.94
2018-12-25T21:09:37.983Z,68.71
2018-12-25T21:15:59.275Z,69.13
2018-12-25T21:18:40.101Z,68.04
2018-12-25T21:21:47.224Z,69.20
2018-12-25T21:24:54.367Z,69.09
2018-12-25T21:27:41.605Z,69.59
2018-12-25T21:30:09.906Z,69.22
2018-12-25T21:32:38.213Z,69.94
2018-12-25T21:35:46.632Z,69.48
2018-12-25T21:38:14.920Z,69.44
2018-12-25T21:40:43.226Z,69.74
2018-12-25T21:43:11.521Z,69.46
2018-12-25T21:45:39.817Z,70.41
2018-12-25T21:48:08.127Z,70.53
2018-12-25T21:50:36.488Z,70.02
2018-12-25T21:53:04.743Z,70.32
2018-12-25T21:55:33.043Z,71.51
2018-12-25T21:58:01.329Z,70.73
2018-12-25T22:00:29.621Z,71.02
2018-12-25T22:02:57.923Z,71.09
2018-12-25T22:05:26.216Z,70.60
2018-12-25T22:07:54.532Z,70.61
2018-12-25T22:10:22.826Z,70.42
2018-12-25T22:12:51.142Z,70.15
2018-12-25T22:15:19.543Z,70.54
2018-12-25T22:17:47.830Z,69.94
2018-12-25T22:23:29.984Z,70.16
2018-12-25T22:25:58.399Z,71.24
2018-12-25T22:28:28.321Z,70.32
2018-12-25T22:30:56.588Z,70.42
2018-12-25T22:33:24.884Z,71.46
2018-12-25T22:35:53.194Z,72.12
2018-12-25T22:38:21.491Z,70.73
2018-12-25T22:40:49.778Z,70.33
2018-12-25T22:43:18.077Z,70.50
2018-12-25T22:45:46.361Z,72.77
2018-12-25T22:48:14.682Z,71.01
2018-12-25T22:50:42.996Z,70.97
2018-12-25T22:53:11.273Z,71.05
2018-12-25T22:55:39.578Z,70.91
2018-12-25T22:58:07.875Z,70.60
2018-12-25T23:03:25.041Z,70.40
2018-12-25T23:05:53.364Z,70.84
2018-12-25T23:08:21.685Z,71.11
2018-12-25T23:10:49.969Z,71.19
2018-12-25T23:13:18.291Z,71.30
2018-12-25T23:15:46.588Z,71.53
2018-12-25T23:18:14.911Z,71.65
2018-12-25T23:20:43.217Z,71.89
2018-12-25T23:23:11.545Z,72.07
2018-12-25T23:25:44.588Z,72.26
2018-12-25T23:28:09.855Z,72.47
2018-12-25T23:30:38.143Z,72.41
2018-12-25T23:33:06.444Z,72.57
2018-12-25T23:35:34.725Z,72.67
2018-12-25T23:38:03.030Z,72.70
2018-12-25T23:40:31.313Z,72.84
2018-12-25T23:42:59.638Z,73.08
2018-12-25T23:45:27.948Z,73.42
2018-12-25T23:47:56.237Z,73.56
2018-12-25T23:50:24.538Z,73.84
2018-12-25T23:52:52.864Z,73.94
2018-12-25T23:55:21.138Z,74.28
2018-12-25T23:57:49.432Z,74.38
